Time;durP1;ratioP1;P1;durP2;ratioP2;P2;SDS_P1;SDS_P2;PMS_P1;PMS_P2;Temp;Humidity;BMP_temperature;BMP_pressure;BME280_temperature;BME280_humidity;BME280_pressure;Samples;Min_cycle;Max_cycle;Signal;HPM_P1;HPM_P2
2022/07/22 00:02:19;;;;;;;;;;;;;;;21.01;100.00;99338.44;5053255;28;20625;-40
2022/07/22 00:04:45;;;;;;;;;;;;;;;21.50;100.00;99349.88;5054456;28;20385;-40
2022/07/22 00:07:10;;;;;;;;;;;;;;;20.97;100.00;99352.69;5053435;28;20542;-40
2022/07/22 00:09:35;;;;;;;;;;;;;;;21.85;100.00;99343.84;5051818;28;20460;-40
2022/07/22 00:12:00;;;;;;;;;;;;;;;21.66;100.00;99345.19;5050412;28;19963;-40
2022/07/22 00:14:26;;;;;;;;;;;;;;;20.71;100.00;99341.41;5053478;28;19951;-41
2022/07/22 00:16:51;;;;;;;;;;;;;;;20.62;100.00;99344.66;5051805;28;20009;-41
2022/07/22 00:19:16;;;;;;;;;;;;;;;20.99;100.00;99348.19;5051247;28;19920;-41
2022/07/22 00:21:42;;;;;;;;;;;;;;;20.62;100.00;99352.50;5052269;28;19920;-40
2022/07/22 00:24:07;;;;;;;;;;;;;;;20.60;100.00;99354.38;5052963;28;19916;-40
2022/07/22 00:26:32;;;;;;;;;;;;;;;20.82;100.00;99359.84;5053299;28;20336;-41
2022/07/22 00:28:57;;;;;;;;;;;;;;;20.94;100.00;99362.53;5051606;28;20458;-40
2022/07/22 00:31:23;;;;;;;;;;;;;;;20.56;100.00;99358.13;5051817;28;20058;-41
2022/07/22 00:33:48;;;;;;;;;;;;;;;20.84;100.00;99363.16;5052388;28;20011;-40
2022/07/22 00:36:13;;;;;;;;;;;;;;;20.94;100.00;99359.91;5053496;28;20039;-41
2022/07/22 00:38:39;;;;;;;;;;;;;;;20.96;100.00;99363.25;5053192;28;20011;-40
2022/07/22 00:41:04;;;;;;;;;;;;;;;21.41;100.00;99355.78;5050614;28;19920;-40
2022/07/22 00:43:47;;;;;;;;;;;;;;;21.25;100.00;99359.44;5051467;28;19960;-43
2022/07/22 00:46:13;;;;;;;;;;;;;;;20.92;100.00;99360.03;5053732;28;19944;-43
2022/07/22 00:48:38;;;;;;;;;;;;;;;20.66;100.00;99354.81;5052892;28;20709;-41
2022/07/22 00:51:03;;;;;;;;;;;;;;;21.26;100.00;99363.75;5051607;28;19956;-40
2022/07/22 00:53:28;;;;;;;;;;;;;;;20.96;100.00;99360.63;5047518;28;20007;-41
2022/07/22 00:55:53;;;;;;;;;;;;;;;21.41;100.00;99355.78;5052511;28;20022;-41
2022/07/22 00:58:21;;;;;;;;;;;;;;;21.62;100.00;99359.50;5053298;28;20011;-41
2022/07/22 01:00:47;;;;;;;;;;;;;;;22.03;100.00;99342.53;5051857;28;19920;-40
2022/07/22 01:03:13;;;;;;;;;;;;;;;21.26;100.00;99345.41;5050643;28;19989;-41
2022/07/22 01:05:38;;;;;;;;;;;;;;;21.53;100.00;99347.06;5052217;28;19921;-41
2022/07/22 01:08:05;;;;;;;;;;;;;;;21.19;100.00;99343.31;5052167;28;20685;-40
2022/07/22 01:10:30;;;;;;;;;;;;;;;21.02;100.00;99352.38;5052632;28;20138;-41
2022/07/22 01:12:55;;;;;;;;;;;;;;;21.16;100.00;99351.41;5051813;28;19923;-40
2022/07/22 01:15:20;;;;;;;;;;;;;;;20.90;100.00;99348.81;5051854;28;19940;-41
2022/07/22 01:17:46;;;;;;;;;;;;;;;21.06;100.00;99345.97;5051648;28;19920;-40
2022/07/22 01:20:11;;;;;;;;;;;;;;;20.67;100.00;99351.25;5052802;28;19924;-40
2022/07/22 01:22:36;;;;;;;;;;;;;;;21.36;100.00;99347.38;5050908;28;19943;-40
2022/07/22 01:25:02;;;;;;;;;;;;;;;21.35;100.00;99346.56;5053018;28;19920;-40
2022/07/22 01:27:29;;;;;;;;;;;;;;;21.47;100.00;99342.25;5053461;28;20421;-40
2022/07/22 01:29:54;;;;;;;;;;;;;;;20.86;100.00;99335.09;5051727;28;20559;-41
2022/07/22 01:32:20;;;;;;;;;;;;;;;21.37;100.00;99333.31;5054646;28;19924;-40
2022/07/22 01:34:45;;;;;;;;;;;;;;;20.51;100.00;99328.81;5055012;28;19928;-41
2022/07/22 01:37:10;;;;;;;;;;;;;;;21.15;100.00;99334.84;5056619;28;19924;-40
2022/07/22 01:39:35;;;;;;;;;;;;;;;20.89;100.00;99329.66;5055263;28;20011;-41
2022/07/22 01:42:01;;;;;;;;;;;;;;;21.02;100.00;99334.03;5056494;28;20040;-41
2022/07/22 01:44:26;;;;;;;;;;;;;;;21.04;100.00;99335.59;5054842;28;19975;-40
2022/07/22 01:46:51;;;;;;;;;;;;;;;20.52;100.00;99340.94;5056126;28;19964;-40
2022/07/22 01:49:16;;;;;;;;;;;;;;;20.96;100.00;99340.56;5054327;28;19920;-40
2022/07/22 01:51:42;;;;;;;;;;;;;;;20.29;100.00;99332.84;5055631;28;19920;-40
2022/07/22 01:54:07;;;;;;;;;;;;;;;20.15;100.00;99338.19;5054127;28;19920;-41
2022/07/22 01:56:32;;;;;;;;;;;;;;;20.37;100.00;99348.91;5056545;28;19924;-41
2022/07/22 01:58:57;;;;;;;;;;;;;;;20.72;100.00;99343.06;5056201;28;19924;-40
2022/07/22 02:01:24;;;;;;;;;;;;;;;19.89;100.00;99353.81;5051935;28;19920;-41
2022/07/22 02:03:49;;;;;;;;;;;;;;;19.67;100.00;99358.69;5053174;28;19916;-41
2022/07/22 02:06:16;;;;;;;;;;;;;;;19.99;100.00;99365.31;5053961;28;20221;-40
2022/07/22 02:08:41;;;;;;;;;;;;;;;19.42;100.00;99361.06;5054157;28;20440;-41
2022/07/22 02:11:07;;;;;;;;;;;;;;;19.72;100.00;99373.16;5052433;28;21530;-41
2022/07/22 02:13:32;;;;;;;;;;;;;;;19.67;100.00;99377.81;5054277;28;21536;-41
2022/07/22 02:15:57;;;;;;;;;;;;;;;19.42;100.00;99379.34;5054763;28;19920;-41
2022/07/22 02:18:22;;;;;;;;;;;;;;;20.42;100.00;99390.44;5056351;28;20578;-40
2022/07/22 02:20:48;;;;;;;;;;;;;;;19.81;100.00;99374.34;5055573;28;19920;-43
2022/07/22 02:23:13;;;;;;;;;;;;;;;20.30;100.00;99389.47;5055843;28;19921;-40
2022/07/22 02:25:38;;;;;;;;;;;;;;;20.14;100.00;99378.31;5054701;28;19921;-41
2022/07/22 02:28:04;;;;;;;;;;;;;;;20.24;100.00;99384.66;5054769;28;19924;-41
2022/07/22 02:30:30;;;;;;;;;;;;;;;20.40;100.00;99380.06;5050882;28;19920;-41
2022/07/22 02:32:55;;;;;;;;;;;;;;;20.18;100.00;99377.19;5053386;28;19924;-40
2022/07/22 02:35:20;;;;;;;;;;;;;;;20.88;100.00;99369.03;5052964;28;20332;-41
2022/07/22 02:37:46;;;;;;;;;;;;;;;20.40;100.00;99364.38;5055036;28;19924;-41
2022/07/22 02:40:11;;;;;;;;;;;;;;;20.54;100.00;99370.47;5054400;28;19926;-41
2022/07/22 02:42:36;;;;;;;;;;;;;;;20.85;100.00;99362.22;5054389;28;20032;-41
2022/07/22 02:45:02;;;;;;;;;;;;;;;20.87;100.00;99357.72;5053197;28;19920;-41
2022/07/22 02:47:27;;;;;;;;;;;;;;;20.63;100.00;99351.56;5055481;28;19923;-41
2022/07/22 02:49:52;;;;;;;;;;;;;;;20.64;100.00;99350.59;5055214;28;19922;-41
2022/07/22 02:52:17;;;;;;;;;;;;;;;19.95;100.00;99352.56;5054559;28;19924;-41
2022/07/22 02:54:43;;;;;;;;;;;;;;;20.49;100.00;99362.91;5052689;28;19935;-41
2022/07/22 02:57:08;;;;;;;;;;;;;;;19.87;100.00;99360.91;5055280;28;19970;-41
2022/07/22 02:59:33;;;;;;;;;;;;;;;20.25;100.00;99370.63;5052450;28;19977;-41
2022/07/22 03:01:59;;;;;;;;;;;;;;;20.12;100.00;99372.38;5053819;28;19928;-41
2022/07/22 03:04:24;;;;;;;;;;;;;;;20.27;100.00;99373.97;5055067;28;20755;-41
2022/07/22 03:06:49;;;;;;;;;;;;;;;20.73;100.00;99365.66;5053644;28;19921;-41
2022/07/22 03:09:14;;;;;;;;;;;;;;;20.68;100.00;99367.78;5054266;28;19956;-41
2022/07/22 03:11:40;;;;;;;;;;;;;;;20.87;100.00;99373.44;5054910;28;20827;-41
2022/07/22 03:14:05;;;;;;;;;;;;;;;20.26;100.00;99367.06;5053492;28;19920;-41
2022/07/22 03:16:30;;;;;;;;;;;;;;;20.50;100.00;99366.38;5051108;28;19924;-40
2022/07/22 03:18:55;;;;;;;;;;;;;;;20.83;100.00;99371.97;5053469;28;19981;-41
2022/07/22 03:21:21;;;;;;;;;;;;;;;20.60;100.00;99370.91;5055348;28;19969;-41
2022/07/22 03:23:46;;;;;;;;;;;;;;;20.73;100.00;99365.66;5053342;28;20045;-41
2022/07/22 03:26:12;;;;;;;;;;;;;;;20.68;100.00;99366.00;5052589;28;19920;-41
2022/07/22 03:28:37;;;;;;;;;;;;;;;20.52;100.00;99361.88;5053619;28;20397;-41
2022/07/22 03:31:02;;;;;;;;;;;;;;;20.16;100.00;99377.31;5053549;28;20659;-41
2022/07/22 03:33:27;;;;;;;;;;;;;;;20.69;100.00;99374.69;5053310;28;19927;-41
2022/07/22 03:35:53;;;;;;;;;;;;;;;20.96;100.00;99366.75;5053414;28;19999;-41
2022/07/22 03:38:18;;;;;;;;;;;;;;;20.31;100.00;99364.97;5052957;28;20019;-41
2022/07/22 03:40:43;;;;;;;;;;;;;;;20.38;100.00;99366.25;5053721;28;19927;-41
2022/07/22 03:43:08;;;;;;;;;;;;;;;21.32;100.00;99367.72;5054171;28;19920;-41
2022/07/22 03:45:34;;;;;;;;;;;;;;;20.78;100.00;99363.59;5052958;28;20032;-41
2022/07/22 03:47:59;;;;;;;;;;;;;;;20.86;100.00;99366.50;5052714;28;20023;-41
2022/07/22 03:50:24;;;;;;;;;;;;;;;20.23;100.00;99367.25;5051774;28;19963;-42
2022/07/22 03:52:49;;;;;;;;;;;;;;;19.80;100.00;99372.69;5053865;28;19967;-41
2022/07/22 03:55:15;;;;;;;;;;;;;;;20.14;100.00;99378.31;5051485;28;20002;-41
2022/07/22 03:57:40;;;;;;;;;;;;;;;20.01;100.00;99379.13;5052895;28;19971;-41
2022/07/22 04:00:06;;;;;;;;;;;;;;;20.16;100.00;99379.94;5052239;28;19955;-42
2022/07/22 04:02:31;;;;;;;;;;;;;;;20.64;100.00;99379.38;5051505;28;20010;-41
2022/07/22 04:04:56;;;;;;;;;;;;;;;21.39;100.00;99374.19;5052430;28;20716;-41
2022/07/22 04:07:21;;;;;;;;;;;;;;;21.04;100.00;99369.66;5054490;28;20480;-41
2022/07/22 04:09:47;;;;;;;;;;;;;;;21.91;100.00;99370.47;5051442;28;20211;-41
2022/07/22 04:12:12;;;;;;;;;;;;;;;21.59;100.00;99372.81;5050265;28;19924;-41
2022/07/22 04:14:37;;;;;;;;;;;;;;;21.55;100.00;99368.72;5051517;28;19968;-40
2022/07/22 04:17:02;;;;;;;;;;;;;;;21.91;100.00;99364.41;5052559;28;19966;-40
2022/07/22 04:19:28;;;;;;;;;;;;;;;21.46;100.00;99353.66;5050732;28;19955;-40
2022/07/22 04:21:53;;;;;;;;;;;;;;;20.84;100.00;99352.69;5053635;28;19955;-40
2022/07/22 04:24:19;;;;;;;;;;;;;;;21.35;100.00;99361.41;5053367;28;19923;-40
2022/07/22 04:26:44;;;;;;;;;;;;;;;20.49;100.00;99357.69;5052819;28;19954;-40
2022/07/22 04:29:09;;;;;;;;;;;;;;;21.61;100.00;99362.22;5052446;28;19920;-40
2022/07/22 04:31:34;;;;;;;;;;;;;;;21.38;100.00;99355.97;5052843;28;19928;-41
2022/07/22 04:34:00;;;;;;;;;;;;;;;21.00;100.00;99355.09;5053981;28;19921;-40
2022/07/22 04:36:25;;;;;;;;;;;;;;;21.47;100.00;99356.19;5052336;28;19920;-40
2022/07/22 04:38:50;;;;;;;;;;;;;;;21.34;100.00;99359.75;5052984;28;20035;-40
2022/07/22 04:41:16;;;;;;;;;;;;;;;20.98;100.00;99353.53;5052495;28;19971;-40
2022/07/22 04:43:41;;;;;;;;;;;;;;;21.34;100.00;99354.50;5052966;28;19966;-41
2022/07/22 04:46:06;;;;;;;;;;;;;;;20.78;100.00;99340.03;5051329;28;19922;-40
2022/07/22 04:48:31;;;;;;;;;;;;;;;21.21;100.00;99357.16;5050960;28;19931;-40
2022/07/22 04:51:00;;;;;;;;;;;;;;;20.49;100.00;99352.47;5050567;28;19958;-40
2022/07/22 04:53:26;;;;;;;;;;;;;;;20.17;100.00;99368.50;5053299;28;19920;-40
2022/07/22 04:55:51;;;;;;;;;;;;;;;19.97;100.00;99367.19;5053654;28;19927;-40
2022/07/22 04:58:16;;;;;;;;;;;;;;;20.54;100.00;99370.47;5051746;28;19948;-40
2022/07/22 05:00:41;;;;;;;;;;;;;;;20.57;100.00;99370.28;5051768;28;19928;-40
2022/07/22 05:03:07;;;;;;;;;;;;;;;20.45;100.00;99366.69;5050554;28;19920;-40
2022/07/22 05:05:32;;;;;;;;;;;;;;;21.31;100.00;99371.28;5048379;28;21137;-40
2022/07/22 05:07:57;;;;;;;;;;;;;;;20.42;100.00;99372.97;5051316;28;20349;-40
2022/07/22 05:10:22;;;;;;;;;;;;;;;20.65;100.00;99375.84;5050829;28;20005;-40
2022/07/22 05:12:48;;;;;;;;;;;;;;;20.63;100.00;99380.34;5052339;28;19966;-41
2022/07/22 05:15:13;;;;;;;;;;;;;;;20.47;100.00;99370.88;5054169;28;19960;-40
2022/07/22 05:17:38;;;;;;;;;;;;;;;20.68;100.00;99370.38;5054188;28;19924;-40
2022/07/22 05:20:04;;;;;;;;;;;;;;;21.00;100.00;99369.97;5051449;28;19921;-40
2022/07/22 05:22:29;;;;;;;;;;;;;;;20.80;100.00;99374.81;5052960;28;19920;-40
2022/07/22 05:24:55;;;;;;;;;;;;;;;20.66;100.00;99374.88;5051429;28;19921;-40
2022/07/22 05:27:20;;;;;;;;;;;;;;;20.71;100.00;99372.81;5053116;28;19920;-40
2022/07/22 05:29:45;;;;;;;;;;;;;;;21.27;100.00;99377.69;5052580;28;19916;-40
2022/07/22 05:32:10;;;;;;;;;;;;;;;21.57;100.00;99377.31;5051950;28;20357;-40
2022/07/22 05:34:35;;;;;;;;;;;;;;;21.01;100.00;99374.28;5051955;28;20944;-40
2022/07/22 05:37:01;;;;;;;;;;;;;;;21.62;100.00;99374.38;5051040;28;19987;-40
2022/07/22 05:39:26;;;;;;;;;;;;;;;21.66;100.00;99371.41;5053429;28;19924;-40
2022/07/22 05:41:51;;;;;;;;;;;;;;;21.29;100.00;99368.75;5051463;28;19978;-40
2022/07/22 05:44:16;;;;;;;;;;;;;;;21.53;100.00;99375.88;5053073;28;20587;-40
2022/07/22 05:46:42;;;;;;;;;;;;;;;21.17;100.00;99364.41;5051390;28;20845;-40
2022/07/22 05:49:07;;;;;;;;;;;;;;;21.14;100.00;99359.34;5047530;28;19931;-40
2022/07/22 05:51:34;;;;;;;;;;;;;;;21.80;100.00;99364.34;5051990;28;19924;-40
2022/07/22 05:53:59;;;;;;;;;;;;;;;20.98;100.00;99359.63;5053113;28;19921;-40
2022/07/22 05:56:25;;;;;;;;;;;;;;;21.62;100.00;99363.88;5052679;28;19975;-40
2022/07/22 05:58:50;;;;;;;;;;;;;;;21.11;100.00;99359.59;5053126;28;19947;-40
2022/07/22 06:01:15;;;;;;;;;;;;;;;21.89;100.00;99366.28;5052385;28;19931;-40
2022/07/22 06:03:41;;;;;;;;;;;;;;;22.24;100.00;99355.88;5052753;28;19928;-40
2022/07/22 06:06:08;;;;;;;;;;;;;;;21.54;100.00;99361.81;5052212;28;20227;-40
2022/07/22 06:08:34;;;;;;;;;;;;;;;22.17;100.00;99361.63;5052927;28;19932;-40
2022/07/22 06:10:59;;;;;;;;;;;;;;;21.84;100.00;99369.25;5051794;28;19920;-40
2022/07/22 06:13:24;;;;;;;;;;;;;;;22.00;100.00;99371.59;5052863;28;19920;-40
2022/07/22 06:15:49;;;;;;;;;;;;;;;22.05;100.00;99366.84;5053327;28;19927;-40
2022/07/22 06:18:15;;;;;;;;;;;;;;;21.48;100.00;99370.13;5054103;28;19928;-40
2022/07/22 06:20:40;;;;;;;;;;;;;;;21.87;100.00;99370.81;5057289;28;19990;-40
2022/07/22 06:23:05;;;;;;;;;;;;;;;22.00;100.00;99363.72;5053337;28;20618;-40
2022/07/22 06:25:30;;;;;;;;;;;;;;;21.58;100.00;99367.69;5052156;28;20364;-40
2022/07/22 06:27:56;;;;;;;;;;;;;;;21.96;100.00;99370.13;5054990;28;19978;-40
2022/07/22 06:30:21;;;;;;;;;;;;;;;22.05;100.00;99361.59;5055673;28;19916;-40
2022/07/22 06:32:46;;;;;;;;;;;;;;;21.16;100.00;99370.56;5054987;28;19921;-40
2022/07/22 06:35:11;;;;;;;;;;;;;;;21.47;100.00;99371.91;5056942;28;19939;-40
2022/07/22 06:37:37;;;;;;;;;;;;;;;21.81;100.00;99376.53;5038063;28;20365;-40
2022/07/22 06:40:02;;;;;;;;;;;;;;;21.81;100.00;99372.09;5057877;28;19960;-40
2022/07/22 06:42:27;;;;;;;;;;;;;;;21.87;100.00;99373.44;5056862;28;19920;-40
2022/07/22 06:44:53;;;;;;;;;;;;;;;21.79;100.00;99368.75;5056615;28;20015;-40
2022/07/22 06:47:18;;;;;;;;;;;;;;;22.01;100.00;99365.41;5056240;28;20074;-40
2022/07/22 06:49:43;;;;;;;;;;;;;;;22.08;100.00;99371.03;5056029;28;20025;-40
2022/07/22 06:52:08;;;;;;;;;;;;;;;21.08;100.00;99370.28;5057975;28;20991;-40
2022/07/22 06:54:34;;;;;;;;;;;;;;;21.48;100.00;99372.72;5057158;28;20503;-40
2022/07/22 06:56:59;;;;;;;;;;;;;;;21.57;100.00;99366.84;5057180;28;20294;-40
2022/07/22 06:59:24;;;;;;;;;;;;;;;22.41;100.00;99367.72;5056080;28;19920;-40
2022/07/22 07:01:49;;;;;;;;;;;;;;;22.73;100.00;99361.81;5057146;28;20035;-40
2022/07/22 07:04:15;;;;;;;;;;;;;;;22.67;100.00;99362.25;5055698;28;19939;-40
2022/07/22 07:06:40;;;;;;;;;;;;;;;22.04;100.00;99370.41;5056215;28;19931;-40
2022/07/22 07:09:05;;;;;;;;;;;;;;;22.39;100.00;99366.16;5053790;28;19960;-40
2022/07/22 07:11:31;;;;;;;;;;;;;;;22.28;100.00;99366.94;5054355;28;20062;-40
2022/07/22 07:13:56;;;;;;;;;;;;;;;23.00;100.00;99360.66;5056958;28;19967;-40
2022/07/22 07:16:21;;;;;;;;;;;;;;;23.54;100.00;99373.03;5053810;28;19916;-39
2022/07/22 07:18:46;;;;;;;;;;;;;;;23.79;100.00;99370.13;5055380;28;19964;-40
2022/07/22 07:21:12;;;;;;;;;;;;;;;23.41;100.00;99373.16;5055206;28;19956;-40
2022/07/22 07:23:37;;;;;;;;;;;;;;;23.01;100.00;99368.41;5054810;28;20012;-40
2022/07/22 07:26:02;;;;;;;;;;;;;;;21.62;100.00;99380.47;5053118;28;20476;-40
2022/07/22 07:28:27;;;;;;;;;;;;;;;21.46;100.00;99365.00;5053875;28;19974;-40
2022/07/22 07:30:53;;;;;;;;;;;;;;;22.05;100.00;99358.97;5052986;28;19927;-40
2022/07/22 07:33:18;;;;;;;;;;;;;;;21.98;100.00;99365.63;5052319;28;20043;-40
2022/07/22 07:35:44;;;;;;;;;;;;;;;21.52;100.00;99368.94;5053180;28;20042;-40
2022/07/22 07:38:09;;;;;;;;;;;;;;;21.97;100.00;99358.72;5053569;28;19972;-40
2022/07/22 07:40:34;;;;;;;;;;;;;;;22.44;100.00;99364.00;5052647;28;19971;-40
2022/07/22 07:42:59;;;;;;;;;;;;;;;22.55;100.00;99364.88;5054187;28;19948;-40
2022/07/22 07:45:25;;;;;;;;;;;;;;;22.94;100.00;99370.66;5053705;28;20717;-40
2022/07/22 07:47:50;;;;;;;;;;;;;;;22.72;100.00;99368.03;5053092;28;20051;-39
2022/07/22 07:50:15;;;;;;;;;;;;;;;22.83;100.00;99368.03;5054278;28;20647;-40
2022/07/22 07:52:41;;;;;;;;;;;;;;;23.14;100.00;99377.00;5052625;28;20363;-40
2022/07/22 07:55:07;;;;;;;;;;;;;;;22.09;100.00;99384.03;5052221;28;19920;-40
2022/07/22 07:57:32;;;;;;;;;;;;;;;22.05;100.00;99382.56;5052464;28;19997;-39
2022/07/22 07:59:57;;;;;;;;;;;;;;;23.14;100.00;99370.91;5052343;28;20007;-39
2022/07/22 08:02:22;;;;;;;;;;;;;;;23.28;100.00;99373.28;5052448;28;20345;-39
2022/07/22 08:04:48;;;;;;;;;;;;;;;21.57;100.00;99377.31;5051674;28;19978;-39
2022/07/22 08:07:14;;;;;;;;;;;;;;;21.93;100.00;99378.22;5054805;28;19927;-39
2022/07/22 08:09:39;;;;;;;;;;;;;;;21.61;100.00;99381.41;5052528;28;20325;-39
2022/07/22 08:12:04;;;;;;;;;;;;;;;21.39;100.00;99375.97;5051575;28;19967;-39
2022/07/22 08:14:30;;;;;;;;;;;;;;;21.81;100.00;99373.91;5052296;28;19951;-40
2022/07/22 08:16:55;;;;;;;;;;;;;;;21.03;100.00;99375.00;5051301;28;20518;-40
2022/07/22 08:19:20;;;;;;;;;;;;;;;21.54;100.00;99377.53;5051469;28;19967;-39
2022/07/22 08:21:46;;;;;;;;;;;;;;;20.47;100.00;99372.66;5053373;28;20009;-39
2022/07/22 08:24:11;;;;;;;;;;;;;;;21.13;100.00;99375.19;5052196;28;19920;-40
2022/07/22 08:26:36;;;;;;;;;;;;;;;21.03;100.00;99375.00;5051294;28;20049;-40
2022/07/22 08:29:02;;;;;;;;;;;;;;;21.48;100.00;99384.06;5052577;28;19966;-39
2022/07/22 08:31:27;;;;;;;;;;;;;;;21.80;100.00;99380.06;5050507;28;19966;-40
2022/07/22 08:33:52;;;;;;;;;;;;;;;21.29;100.00;99376.63;5050181;28;20317;-39
2022/07/22 08:36:18;;;;;;;;;;;;;;;21.45;100.00;99372.97;5051411;28;19924;-40
2022/07/22 08:38:43;;;;;;;;;;;;;;;22.45;100.00;99374.41;5051593;28;19924;-40
2022/07/22 08:41:08;;;;;;;;;;;;;;;22.31;100.00;99372.00;5051114;28;19916;-39
2022/07/22 08:43:34;;;;;;;;;;;;;;;22.09;100.00;99378.78;5047379;28;19931;-39
2022/07/22 08:45:59;;;;;;;;;;;;;;;21.52;100.00;99375.03;5050441;28;20015;-39
2022/07/22 08:48:25;;;;;;;;;;;;;;;22.00;100.00;99368.97;5050411;28;19925;-39
2022/07/22 08:50:50;;;;;;;;;;;;;;;21.65;100.00;99367.13;5049886;28;19986;-39
2022/07/22 08:53:15;;;;;;;;;;;;;;;21.96;100.00;99383.25;5050086;28;19974;-40
2022/07/22 08:55:44;;;;;;;;;;;;;;;22.67;100.00;99372.75;5049987;28;19976;-39
2022/07/22 08:58:10;;;;;;;;;;;;;;;23.48;100.00;99370.91;5051854;28;19924;-39
2022/07/22 09:00:35;;;;;;;;;;;;;;;23.52;100.00;99375.78;5051260;28;20345;-39
2022/07/22 09:03:00;;;;;;;;;;;;;;;22.99;100.00;99378.22;5052160;28;19928;-39
2022/07/22 09:05:26;;;;;;;;;;;;;;;23.00;100.00;99379.06;5049688;28;20683;-39
2022/07/22 09:07:52;;;;;;;;;;;;;;;23.28;100.00;99372.47;5051112;28;20464;-39
2022/07/22 09:10:19;;;;;;;;;;;;;;;23.43;100.00;99381.78;5032501;28;20924;-39
2022/07/22 09:12:55;;;;;;;;;;;;;;;24.06;100.00;99378.50;5052956;28;19988;-39
2022/07/22 09:15:30;;;;;;;;;;;;;;;23.56;100.00;99378.97;5051366;28;19978;-40
2022/07/22 09:17:56;;;;;;;;;;;;;;;23.78;100.00;99376.34;5050317;28;19984;-39
2022/07/22 09:20:21;;;;;;;;;;;;;;;23.41;100.00;99377.59;5052356;28;19916;-39
2022/07/22 09:22:47;;;;;;;;;;;;;;;23.60;100.00;99377.78;5051905;28;19921;-39
2022/07/22 09:25:29;;;;;;;;;;;;;;;23.68;100.00;99371.94;5051567;28;19927;-40
2022/07/22 09:27:55;;;;;;;;;;;;;;;23.67;100.00;99378.13;5051911;28;19974;-39
2022/07/22 09:30:24;;;;;;;;;;;;;;;24.07;100.00;99391.56;5051760;28;20012;-39
2022/07/22 09:32:50;;;;;;;;;;;;;;;23.57;100.00;99388.56;5051564;28;19921;-39
2022/07/22 09:35:15;;;;;;;;;;;;;;;23.62;100.00;99385.56;5052873;28;19974;-39
2022/07/22 09:37:49;;;;;;;;;;;;;;;23.76;100.00;99383.50;5051666;28;20251;-39
2022/07/22 09:40:15;;;;;;;;;;;;;;;23.09;100.00;99391.47;5051046;28;19921;-39
2022/07/22 09:43:00;;;;;;;;;;;;;;;21.92;100.00;99394.94;5049777;28;19993;-39
2022/07/22 09:45:26;;;;;;;;;;;;;;;21.97;100.00;99395.44;5052171;28;20615;-39
2022/07/22 09:47:53;;;;;;;;;;;;;;;22.71;100.00;99385.53;5051401;28;19936;-39
2022/07/22 09:50:22;;;;;;;;;;;;;;;23.19;100.00;99384.53;5052326;28;19964;-39
2022/07/22 09:52:48;;;;;;;;;;;;;;;23.46;100.00;99386.78;5054385;28;19920;-40
2022/07/22 09:55:15;;;;;;;;;;;;;;;22.45;100.00;99390.16;5053515;28;19931;-39
2022/07/22 09:57:40;;;;;;;;;;;;;;;23.82;100.00;99381.38;5054388;28;19972;-39
2022/07/22 10:00:08;;;;;;;;;;;;;;;23.61;100.00;99390.00;5054258;28;20023;-39
2022/07/22 10:02:34;;;;;;;;;;;;;;;23.24;100.00;99392.91;5054523;28;19920;-39
2022/07/22 10:04:59;;;;;;;;;;;;;;;24.02;100.00;99391.09;5054922;28;20290;-39
2022/07/22 10:07:26;;;;;;;;;;;;;;;24.05;100.00;99392.66;5054398;28;19920;-39
2022/07/22 10:09:51;;;;;;;;;;;;;;;24.60;100.00;99383.66;5053360;28;19925;-39
2022/07/22 10:12:16;;;;;;;;;;;;;;;25.13;100.00;99387.09;5052122;28;20404;-39
2022/07/22 10:14:42;;;;;;;;;;;;;;;25.07;100.00;99388.47;5052725;28;20305;-39
2022/07/22 10:17:07;;;;;;;;;;;;;;;24.66;100.00;99386.75;5052353;28;19917;-39
2022/07/22 10:19:32;;;;;;;;;;;;;;;25.27;100.00;99386.75;5051986;28;19973;-39
2022/07/22 10:21:58;;;;;;;;;;;;;;;24.68;100.00;99390.06;5051198;28;19932;-39
2022/07/22 10:24:23;;;;;;;;;;;;;;;24.75;100.00;99380.72;5054196;28;19920;-39
2022/07/22 10:26:56;;;;;;;;;;;;;;;24.67;100.00;99385.78;5055313;28;20290;-39
2022/07/22 10:29:24;;;;;;;;;;;;;;;23.23;100.00;99385.97;5055440;28;20053;-39
2022/07/22 10:31:50;;;;;;;;;;;;;;;23.17;100.00;99384.66;5054256;28;20423;-39
2022/07/22 10:34:15;;;;;;;;;;;;;;;23.88;100.00;99383.47;5054904;28;19917;-39
2022/07/22 10:36:42;;;;;;;;;;;;;;;24.33;100.00;99380.66;5054764;28;19976;-39
2022/07/22 10:39:08;;;;;;;;;;;;;;;23.50;100.00;99384.75;5053683;28;19927;-39
2022/07/22 10:41:40;;;;;;;;;;;;;;;24.08;100.00;99385.31;5052410;28;19971;-39
2022/07/22 10:44:06;;;;;;;;;;;;;;;24.09;100.00;99389.63;5052396;28;19958;-39
2022/07/22 10:46:51;;;;;;;;;;;;;;;23.84;100.00;99384.72;5053578;28;20411;-39
2022/07/22 10:49:16;;;;;;;;;;;;;;;22.23;100.00;99390.06;5053209;28;19963;-39
2022/07/22 10:52:01;;;;;;;;;;;;;;;22.41;100.00;99390.50;5051601;28;20688;-39
2022/07/22 10:54:27;;;;;;;;;;;;;;;22.57;100.00;99382.31;5053864;28;20377;-39
2022/07/22 10:56:52;;;;;;;;;;;;;;;22.60;100.00;99375.00;5051489;28;19971;-39
2022/07/22 10:59:19;;;;;;;;;;;;;;;21.93;100.00;99383.47;5051069;28;19968;-39
2022/07/22 11:01:49;;;;;;;;;;;;;;;21.51;100.00;99377.78;5051311;28;19959;-39
2022/07/22 11:04:18;;;;;;;;;;;;;;;21.80;100.00;99377.44;5052698;28;21044;-39
2022/07/22 11:06:44;;;;;;;;;;;;;;;22.38;100.00;99370.56;5053426;28;19968;-39
2022/07/22 11:09:11;;;;;;;;;;;;;;;22.77;100.00;99371.94;5048511;28;19956;-39
2022/07/22 11:11:38;;;;;;;;;;;;;;;23.26;100.00;99377.00;5050790;28;19917;-39
2022/07/22 11:14:03;;;;;;;;;;;;;;;23.33;100.00;99360.66;5050400;28;20065;-39
2022/07/22 11:16:28;;;;;;;;;;;;;;;23.56;100.00;99361.44;5053134;28;20078;-39
2022/07/22 11:19:01;;;;;;;;;;;;;;;24.28;100.00;99367.06;5054182;28;19950;-39
2022/07/22 11:21:28;;;;;;;;;;;;;;;24.22;100.00;99363.13;5054812;28;20680;-39
2022/07/22 11:23:53;;;;;;;;;;;;;;;23.69;100.00;99355.19;5054335;28;19921;-39
2022/07/22 11:26:24;;;;;;;;;;;;;;;24.91;100.00;99349.44;5053182;28;19959;-39
2022/07/22 11:28:50;;;;;;;;;;;;;;;23.05;100.00;99355.88;5053663;28;19925;-39
2022/07/22 11:31:16;;;;;;;;;;;;;;;22.81;100.00;99354.19;5053474;28;19962;-39
2022/07/22 11:33:41;;;;;;;;;;;;;;;23.55;100.00;99349.25;5054730;28;19924;-39
2022/07/22 11:36:09;;;;;;;;;;;;;;;23.85;100.00;99354.81;5052497;28;20363;-39
2022/07/22 11:38:40;;;;;;;;;;;;;;;24.62;100.00;99363.28;5053590;28;19970;-39
2022/07/22 11:41:06;;;;;;;;;;;;;;;24.27;100.00;99357.47;5052860;28;20603;-39
2022/07/22 11:43:38;;;;;;;;;;;;;;;24.86;100.00;99351.66;5053981;28;20125;-39
2022/07/22 11:46:03;;;;;;;;;;;;;;;24.60;100.00;99356.50;5051934;28;19941;-39
2022/07/22 11:48:29;;;;;;;;;;;;;;;24.37;100.00;99367.13;5051613;28;20302;-39
2022/07/22 11:51:04;;;;;;;;;;;;;;;23.92;100.00;99361.22;5050706;28;19917;-39
2022/07/22 11:53:29;;;;;;;;;;;;;;;24.75;100.00;99349.94;5050467;28;20564;-39
2022/07/22 11:56:01;;;;;;;;;;;;;;;24.12;100.00;99363.06;5051122;28;19924;-39
2022/07/22 11:58:46;;;;;;;;;;;;;;;23.42;100.00;99363.47;5041588;28;19975;-39
2022/07/22 12:01:14;;;;;;;;;;;;;;;23.73;100.00;99360.06;5050579;28;19924;-39
2022/07/22 12:03:40;;;;;;;;;;;;;;;24.63;100.00;99354.44;5052098;28;19916;-39
2022/07/22 12:06:09;;;;;;;;;;;;;;;23.95;100.00;99366.25;5052437;28;19931;-39
2022/07/22 12:08:35;;;;;;;;;;;;;;;24.27;100.00;99362.75;5053187;28;20384;-39
2022/07/22 12:11:01;;;;;;;;;;;;;;;25.07;100.00;99348.13;5051726;28;19916;-39
2022/07/22 12:13:30;;;;;;;;;;;;;;;25.18;100.00;99348.00;5051065;28;19928;-39
2022/07/22 12:15:55;;;;;;;;;;;;;;;25.19;100.00;99352.34;5051810;28;20326;-39
2022/07/22 12:18:21;;;;;;;;;;;;;;;24.11;100.00;99353.50;5048477;28;19985;-40
2022/07/22 12:20:47;;;;;;;;;;;;;;;25.61;100.00;99342.47;5049473;28;20297;-39
2022/07/22 12:23:12;;;;;;;;;;;;;;;25.11;100.00;99342.47;5052743;28;19955;-39
2022/07/22 12:25:50;;;;;;;;;;;;;;;24.29;100.00;99343.25;5052364;28;19997;-39
2022/07/22 12:28:16;;;;;;;;;;;;;;;23.91;100.00;99346.41;5052887;28;19921;-39
2022/07/22 12:30:42;;;;;;;;;;;;;;;24.27;100.00;99346.94;5049064;28;21041;-39